createdAt,value
2018-02-07T00:00:19.129Z,101629.14
2018-02-07T00:01:24.137Z,101631.39
2018-02-07T00:02:28.392Z,101621.84
2018-02-07T00:03:33.031Z,101626.91
2018-02-07T00:04:37.442Z,101624.72
2018-02-07T00:05:41.724Z,101620.71
2018-02-07T00:06:46.499Z,101623.69
2018-02-07T00:07:51.021Z,101627.66
2018-02-07T00:08:56.151Z,101628.08
2018-02-07T00:10:00.327Z,101627.59
2018-02-07T00:11:04.655Z,101628.59
2018-02-07T00:12:08.898Z,101631.88
2018-02-07T00:13:13.123Z,101624.48
2018-02-07T00:14:17.666Z,101627.39
2018-02-07T00:15:22.271Z,101624.75
2018-02-07T00:16:26.508Z,101629.09
2018-02-07T00:17:30.884Z,101624.03
2018-02-07T00:18:36.004Z,101620.09
2018-02-07T00:19:40.180Z,101624.38
2018-02-07T00:20:44.322Z,101630.70
2018-02-07T00:21:48.615Z,101629.78
2018-02-07T00:22:53.593Z,101635.04
2018-02-07T00:23:58.098Z,101631.34
2018-02-07T00:25:02.314Z,101627.73
2018-02-07T00:26:06.483Z,101637.42
2018-02-07T00:27:12.022Z,101631.63
2018-02-07T00:28:16.182Z,101635.42
2018-02-07T00:29:20.492Z,101628.45
2018-02-07T00:30:24.940Z,101630.63
2018-02-07T00:31:29.172Z,101627.06
2018-02-07T00:32:33.978Z,101624.58
2018-02-07T00:33:38.509Z,101618.16
2018-02-07T00:34:42.783Z,101628.30
2018-02-07T00:35:47.705Z,101625.33
2018-02-07T00:36:52.873Z,101629.49
2018-02-07T00:37:57.966Z,101628.79
2018-02-07T00:39:02.166Z,101622.73
2018-02-07T00:40:06.614Z,101628.45
2018-02-07T00:41:10.762Z,101627.88
2018-02-07T00:42:15.036Z,101633.78
2018-02-07T00:43:19.297Z,101631.70
2018-02-07T00:44:23.533Z,101636.94
2018-02-07T00:45:28.399Z,101632.86
2018-02-07T00:46:32.753Z,101636.55
2018-02-07T00:47:37.491Z,101636.13
2018-02-07T00:48:41.709Z,101636.69
2018-02-07T00:49:46.470Z,101634.50
2018-02-07T00:50:50.659Z,101638.65
2018-02-07T00:51:55.823Z,101641.69
2018-02-07T00:53:00.022Z,101633.63
2018-02-07T00:54:04.298Z,101632.96
2018-02-07T00:55:08.477Z,101637.52
2018-02-07T00:56:12.627Z,101631.03
2018-02-07T00:57:17.785Z,101626.41
2018-02-07T00:58:22.294Z,101635.69
2018-02-07T00:59:26.501Z,101629.74
2018-02-07T01:00:30.794Z,101627.27
2018-02-07T01:01:35.724Z,101633.34
2018-02-07T01:02:39.982Z,101628.45
2018-02-07T01:03:44.251Z,101627.19
2018-02-07T01:04:48.547Z,101625.66
2018-02-07T01:05:52.713Z,101627.28
2018-02-07T01:06:56.900Z,101628.38
2018-02-07T01:08:01.171Z,101629.78
2018-02-07T01:09:06.361Z,101625.62
2018-02-07T01:10:10.919Z,101633.52
2018-02-07T01:11:15.190Z,101633.81
2018-02-07T01:12:19.399Z,101627.18
2018-02-07T01:13:23.729Z,101630.19
2018-02-07T01:14:27.865Z,101625.89
2018-02-07T01:15:32.022Z,101628.45
2018-02-07T01:16:36.797Z,101626.90
2018-02-07T01:17:41.114Z,101628.12
2018-02-07T01:18:46.565Z,101624.32
2018-02-07T01:19:51.513Z,101625.31
2018-02-07T01:20:55.671Z,101624.01
2018-02-07T01:22:00.121Z,101629.19
2018-02-07T01:23:04.258Z,101632.63
2018-02-07T01:24:08.486Z,101631.78
2018-02-07T01:25:12.691Z,101625.31
2018-02-07T01:26:16.970Z,101626.52
2018-02-07T01:27:21.184Z,101625.91
2018-02-07T01:28:25.768Z,101631.62
2018-02-07T01:29:30.022Z,101633.08
2018-02-07T01:30:34.410Z,101631.67
2018-02-07T01:31:38.850Z,101633.34
2018-02-07T01:32:43.951Z,101631.91
2018-02-07T01:33:48.171Z,101631.98
2018-02-07T01:34:52.632Z,101640.56
2018-02-07T01:35:56.774Z,101636.53
2018-02-07T01:37:01.005Z,101627.85
2018-02-07T01:38:05.202Z,101634.91
2018-02-07T01:39:09.446Z,101632.69
2018-02-07T01:40:14.818Z,101627.53
2018-02-07T01:41:19.082Z,101634.13
2018-02-07T01:42:23.269Z,101630.65
2018-02-07T01:43:27.505Z,101629.87
2018-02-07T01:44:31.742Z,101635.06
2018-02-07T01:45:36.117Z,101626.83
2018-02-07T01:46:40.718Z,101634.36
2018-02-07T01:47:45.240Z,101638.85
2018-02-07T01:48:50.477Z,101629.46
2018-02-07T01:49:54.699Z,101636.66
2018-02-07T01:50:58.923Z,101641.71
2018-02-07T01:52:03.239Z,101639.30
2018-02-07T01:53:07.384Z,101640.22
2018-02-07T01:54:11.974Z,101645.05
2018-02-07T01:55:16.121Z,101632.61
2018-02-07T01:56:20.290Z,101640.15
2018-02-07T01:57:24.507Z,101636.55
2018-02-07T01:58:28.660Z,101637.27
2018-02-07T01:59:32.945Z,101648.09
2018-02-07T02:00:37.292Z,101642.03
2018-02-07T02:01:41.739Z,101651.06
2018-02-07T02:02:45.950Z,101652.58
2018-02-07T02:03:50.549Z,101645.44
2018-02-07T02:04:54.762Z,101648.39
2018-02-07T02:06:00.098Z,101641.30
2018-02-07T02:07:04.298Z,101642.97
2018-02-07T02:08:08.487Z,101643.43
2018-02-07T02:09:12.826Z,101647.05
2018-02-07T02:10:16.965Z,101638.80
2018-02-07T02:11:21.165Z,101640.30
2018-02-07T02:12:25.289Z,101636.77
2018-02-07T02:13:29.422Z,101641.27
2018-02-07T02:14:33.743Z,101638.73
2018-02-07T02:15:38.251Z,101650.71
2018-02-07T02:16:42.511Z,101646.59
2018-02-07T02:17:47.015Z,101648.27
2018-02-07T02:18:51.930Z,101646.55
2018-02-07T02:19:56.067Z,101645.11
2018-02-07T02:21:01.091Z,101646.41
2018-02-07T02:22:05.262Z,101644.75
2018-02-07T02:23:09.516Z,101645.90
2018-02-07T02:24:14.024Z,101642.55
2018-02-07T02:25:18.206Z,101639.92
2018-02-07T02:26:22.383Z,101641.00
2018-02-07T02:27:26.599Z,101648.19
2018-02-07T02:28:30.810Z,101637.51
2018-02-07T02:29:35.093Z,101641.59
2018-02-07T02:30:40.190Z,101641.59
2018-02-07T02:31:44.652Z,101641.00
2018-02-07T02:32:48.863Z,101636.48
2018-02-07T02:33:52.997Z,101643.13
2018-02-07T02:34:57.123Z,101642.27
2018-02-07T02:36:10.294Z,101639.08
2018-02-07T02:37:14.496Z,101643.08
2018-02-07T02:38:18.638Z,101641.27
2018-02-07T02:39:22.862Z,101648.42
2018-02-07T02:40:26.970Z,101644.13
2018-02-07T02:41:31.189Z,101642.16
2018-02-07T02:42:35.634Z,101645.23
2018-02-07T02:43:39.840Z,101642.93
2018-02-07T02:44:44.450Z,101642.08
2018-02-07T02:45:48.975Z,101648.16
2018-02-07T02:46:53.092Z,101647.31
2018-02-07T02:47:57.277Z,101642.89
2018-02-07T02:49:01.887Z,101641.81
2018-02-07T02:50:06.206Z,101643.85
2018-02-07T02:51:10.343Z,101642.72
2018-02-07T02:52:14.467Z,101648.23
2018-02-07T02:53:18.661Z,101642.93
2018-02-07T02:54:22.875Z,101645.95
2018-02-07T02:55:27.314Z,101642.31
2018-02-07T02:56:31.508Z,101642.19
2018-02-07T02:57:35.644Z,101648.26
2018-02-07T02:58:39.841Z,101646.30
2018-02-07T02:59:44.263Z,101647.21
2018-02-07T03:00:48.993Z,101646.23
2018-02-07T03:01:53.901Z,101648.01
2018-02-07T03:02:58.136Z,101650.27
2018-02-07T03:04:03.222Z,101653.16
2018-02-07T03:05:07.485Z,101647.38
2018-02-07T03:06:11.715Z,101652.31
2018-02-07T03:07:15.914Z,101644.98
2018-02-07T03:08:20.658Z,101652.83
2018-02-07T03:09:24.855Z,101654.26
2018-02-07T03:10:29.058Z,101649.44
2018-02-07T03:11:33.349Z,101649.66
2018-02-07T03:12:37.525Z,101656.43
2018-02-07T03:13:41.719Z,101651.22
2018-02-07T03:14:46.067Z,101655.16
2018-02-07T03:15:50.614Z,101662.91
2018-02-07T03:16:55.682Z,101660.33
2018-02-07T03:18:00.330Z,101661.53
2018-02-07T03:19:04.441Z,101659.73
2018-02-07T03:20:10.128Z,101660.03
2018-02-07T03:21:14.334Z,101666.03
2018-02-07T03:22:19.243Z,101664.26
2018-02-07T03:23:23.506Z,101661.52
2018-02-07T03:24:27.734Z,101671.32
2018-02-07T03:25:31.936Z,101668.02
2018-02-07T03:26:36.490Z,101670.50
2018-02-07T03:27:40.645Z,101667.70
2018-02-07T03:28:45.067Z,101671.02
2018-02-07T03:29:49.372Z,101674.40
2018-02-07T03:30:53.967Z,101676.76
2018-02-07T03:31:58.412Z,101673.55
2018-02-07T03:33:02.606Z,101677.89
2018-02-07T03:34:06.753Z,101674.30
2018-02-07T03:35:10.941Z,101675.23
2018-02-07T03:36:15.190Z,101673.05
2018-02-07T03:37:19.323Z,101674.23
2018-02-07T03:38:23.792Z,101672.65
2018-02-07T03:39:28.218Z,101663.12
2018-02-07T03:40:32.424Z,101668.67
2018-02-07T03:41:36.554Z,101664.13
2018-02-07T03:42:40.894Z,101667.55
2018-02-07T03:43:45.241Z,101672.78
2018-02-07T03:44:50.028Z,101670.06
2018-02-07T03:45:56.089Z,101672.14
2018-02-07T03:47:00.269Z,101674.52
2018-02-07T03:48:04.519Z,101671.76
2018-02-07T03:49:08.732Z,101675.30
2018-02-07T03:50:13.037Z,101678.97
2018-02-07T03:51:17.559Z,101670.18
2018-02-07T03:52:21.710Z,101675.60
2018-02-07T03:53:25.837Z,101674.15
2018-02-07T03:54:30.150Z,101673.41
2018-02-07T03:55:34.322Z,101670.56
2018-02-07T03:56:38.877Z,101679.55
2018-02-07T03:57:43.412Z,101666.44
2018-02-07T03:58:47.690Z,101676.88
2018-02-07T03:59:53.019Z,101674.75
2018-02-07T04:00:57.215Z,101678.64
2018-02-07T04:02:01.671Z,101674.98
2018-02-07T04:03:05.849Z,101678.69
2018-02-07T04:04:10.753Z,101674.73
2018-02-07T04:05:15.556Z,101680.53
2018-02-07T04:06:19.802Z,101682.38
2018-02-07T04:07:23.982Z,101676.56
2018-02-07T04:08:28.116Z,101666.16
2018-02-07T04:09:32.707Z,101672.24
2018-02-07T04:10:36.858Z,101680.76
2018-02-07T04:11:41.054Z,101674.75
2018-02-07T04:12:45.369Z,101677.06
2018-02-07T04:13:49.537Z,101684.87
2018-02-07T04:14:54.382Z,101685.20
2018-02-07T04:15:59.043Z,101684.08
2018-02-07T04:17:04.153Z,101684.19
2018-02-07T04:18:08.434Z,101688.47
2018-02-07T04:19:12.628Z,101683.88
2018-02-07T04:20:16.825Z,101693.92
2018-02-07T04:21:20.984Z,101693.41
2018-02-07T04:22:25.425Z,101695.81
2018-02-07T04:23:29.621Z,101691.06
2018-02-07T04:24:33.753Z,101694.91
2018-02-07T04:25:38.031Z,101693.51
2018-02-07T04:26:42.363Z,101692.55
2018-02-07T04:27:46.940Z,101693.27
2018-02-07T04:28:51.415Z,101697.79
2018-02-07T04:29:56.002Z,101697.56
2018-02-07T04:31:00.404Z,101701.61
2018-02-07T04:32:05.471Z,101699.31
2018-02-07T04:33:09.630Z,101700.80
2018-02-07T04:34:14.130Z,101699.80
2018-02-07T04:35:18.421Z,101704.87
2018-02-07T04:36:22.566Z,101704.17
2018-02-07T04:37:26.684Z,101706.70
2018-02-07T04:38:30.883Z,101707.73
2018-02-07T04:39:35.084Z,101712.89
2018-02-07T04:40:39.641Z,101707.41
2018-02-07T04:41:43.959Z,101709.23
2018-02-07T04:42:48.127Z,101710.11
2018-02-07T04:43:52.690Z,101711.85
2018-02-07T04:44:56.925Z,101710.02
2018-02-07T04:46:01.217Z,101717.47
2018-02-07T04:47:05.729Z,101713.69
2018-02-07T04:48:09.847Z,101710.20
2018-02-07T04:49:13.981Z,101708.91
2018-02-07T04:50:18.276Z,101705.55
2018-02-07T04:51:22.435Z,101708.52
2018-02-07T04:52:27.594Z,101702.69
2018-02-07T04:53:31.817Z,101704.86
2018-02-07T04:54:36.085Z,101709.50
2018-02-07T04:55:40.308Z,101710.45
2018-02-07T04:56:44.599Z,101708.58
2018-02-07T04:57:48.814Z,101717.22
2018-02-07T04:58:52.983Z,101710.95
2018-02-07T04:59:57.409Z,101714.05
2018-02-07T05:01:02.093Z,101714.09
2018-02-07T05:02:06.238Z,101717.78
2018-02-07T05:03:10.348Z,101722.40
2018-02-07T05:04:14.490Z,101713.31
2018-02-07T05:05:18.752Z,101716.78
2018-02-07T05:06:22.984Z,101715.67
2018-02-07T05:07:27.094Z,101717.44
2018-02-07T05:08:31.281Z,101709.34
2018-02-07T05:09:35.576Z,101707.92
2018-02-07T05:10:40.755Z,101709.32
2018-02-07T05:11:45.438Z,101706.36
2018-02-07T05:12:49.572Z,101708.08
2018-02-07T05:13:54.538Z,101709.42
2018-02-07T05:14:58.704Z,101701.92
2018-02-07T05:16:02.971Z,101699.09
2018-02-07T05:17:07.247Z,101698.91
2018-02-07T05:18:11.455Z,101701.39
2018-02-07T05:19:15.576Z,101702.52
2018-02-07T05:20:19.702Z,101701.80
2018-02-07T05:21:23.870Z,101696.17
2018-02-07T05:22:28.162Z,101699.25
2018-02-07T05:23:32.283Z,101698.48
2018-02-07T05:24:36.829Z,101700.63
2018-02-07T05:25:41.090Z,101695.72
2018-02-07T05:26:45.350Z,101695.19
2018-02-07T05:27:49.619Z,101693.53
2018-02-07T05:28:53.798Z,101693.72
2018-02-07T05:29:57.947Z,101702.84
2018-02-07T05:31:03.626Z,101696.79
2018-02-07T05:32:07.774Z,101696.34
2018-02-07T05:33:12.037Z,101694.98
2018-02-07T05:34:16.182Z,101695.19
2018-02-07T05:35:21.536Z,101696.30
2018-02-07T05:36:25.742Z,101693.06
2018-02-07T05:37:29.977Z,101695.88
2018-02-07T05:38:34.190Z,101696.14
2018-02-07T05:39:38.334Z,101697.70
2018-02-07T05:40:42.543Z,101699.72
2018-02-07T05:41:46.701Z,101703.66
2018-02-07T05:42:52.092Z,101707.29
2018-02-07T05:43:56.285Z,101707.42
2018-02-07T05:45:01.093Z,101705.19
2018-02-07T05:46:07.278Z,101704.48
2018-02-07T05:47:11.409Z,101715.89
2018-02-07T05:48:15.664Z,101713.83
2018-02-07T05:49:19.867Z,101716.69
2018-02-07T05:50:24.093Z,101713.39
2018-02-07T05:51:28.249Z,101722.78
2018-02-07T05:52:32.535Z,101716.55
2018-02-07T05:53:37.094Z,101714.23
2018-02-07T05:54:42.345Z,101708.56
2018-02-07T05:55:46.672Z,101709.89
2018-02-07T05:56:50.867Z,101713.50
2018-02-07T05:57:55.110Z,101718.73
2018-02-07T05:58:59.255Z,101713.59
2018-02-07T06:00:05.337Z,101709.36
2018-02-07T06:01:09.469Z,101710.10
2018-02-07T06:02:13.679Z,101717.36
2018-02-07T06:03:17.919Z,101711.41
2018-02-07T06:04:22.105Z,101716.30
2018-02-07T06:05:26.680Z,101714.57
2018-02-07T06:06:30.973Z,101713.66
2018-02-07T06:07:35.105Z,101715.37
2018-02-07T06:08:40.405Z,101718.17
2018-02-07T06:09:44.924Z,101717.28
2018-02-07T06:10:49.181Z,101722.84
2018-02-07T06:11:53.639Z,101721.39
2018-02-07T06:12:58.737Z,101723.64
2018-02-07T06:14:03.033Z,101725.23
2018-02-07T06:15:07.332Z,101721.64
2018-02-07T06:16:11.957Z,101721.98
2018-02-07T06:17:16.560Z,101719.03
2018-02-07T06:18:21.481Z,101718.66
2018-02-07T06:19:25.777Z,101719.45
2018-02-07T06:20:30.277Z,101725.34
2018-02-07T06:21:34.461Z,101723.66
2018-02-07T06:22:38.610Z,101731.30
2018-02-07T06:23:42.951Z,101731.84
2018-02-07T06:24:47.809Z,101728.91
2018-02-07T06:25:52.206Z,101733.62
2018-02-07T06:26:56.729Z,101732.32
2018-02-07T06:28:01.133Z,101723.66
2018-02-07T06:29:05.316Z,101724.40
2018-02-07T06:30:12.669Z,101721.39
2018-02-07T06:31:17.497Z,101724.10
2018-02-07T06:32:22.093Z,101723.86
2018-02-07T06:33:26.331Z,101720.38
2018-02-07T06:34:30.522Z,101719.97
2018-02-07T06:35:34.629Z,101720.54
2018-02-07T06:36:39.245Z,101710.21
2018-02-07T06:37:43.475Z,101710.67
2018-02-07T06:38:47.842Z,101711.14
2018-02-07T06:39:52.086Z,101707.03
2018-02-07T06:40:57.062Z,101712.75
2018-02-07T06:42:02.053Z,101710.64
2018-02-07T06:43:06.551Z,101715.36
2018-02-07T06:44:10.792Z,101725.83
2018-02-07T06:45:16.769Z,101723.06
2018-02-07T06:46:21.049Z,101719.34
2018-02-07T06:47:25.278Z,101718.08
2018-02-07T06:48:29.510Z,101728.72
2018-02-07T06:49:33.680Z,101729.20
2018-02-07T06:50:37.822Z,101735.53
2018-02-07T06:51:41.992Z,101734.73
2018-02-07T06:52:46.498Z,101732.68
2018-02-07T06:53:51.469Z,101729.64
2018-02-07T06:54:55.767Z,101735.03
2018-02-07T06:56:00.522Z,101733.69
2018-02-07T06:57:04.911Z,101730.36
2018-02-07T06:58:09.182Z,101731.29
2018-02-07T06:59:13.393Z,101741.87
2018-02-07T07:00:17.809Z,101734.05
2018-02-07T07:01:22.030Z,101739.80
2018-02-07T07:02:26.605Z,101739.69
2018-02-07T07:03:30.884Z,101742.60
2018-02-07T07:04:35.103Z,101733.52
2018-02-07T07:05:39.451Z,101739.41
2018-02-07T07:06:43.623Z,101739.45
2018-02-07T07:07:48.151Z,101753.73
2018-02-07T07:08:53.051Z,101746.95
2018-02-07T07:09:58.111Z,101750.27
2018-02-07T07:12:16.328Z,101747.91
2018-02-07T07:13:20.469Z,101754.28
2018-02-07T07:14:25.039Z,101750.59
2018-02-07T07:15:29.419Z,101753.11
2018-02-07T07:16:33.602Z,101751.61
2018-02-07T07:17:37.868Z,101756.63
2018-02-07T07:18:42.113Z,101754.97
2018-02-07T07:19:46.647Z,101753.20
2018-02-07T07:20:50.980Z,101748.98
2018-02-07T07:21:56.836Z,101754.77
2018-02-07T07:23:01.744Z,101758.61
2018-02-07T07:24:05.881Z,101760.42
2018-02-07T07:25:10.763Z,101767.64
2018-02-07T07:26:15.294Z,101762.81
2018-02-07T07:27:19.518Z,101758.47
2018-02-07T07:28:23.818Z,101754.63
2018-02-07T07:29:27.999Z,101763.45
2018-02-07T07:30:32.460Z,101766.34
2018-02-07T07:31:37.174Z,101763.05
2018-02-07T07:32:41.646Z,101761.58
2018-02-07T07:33:46.107Z,101762.50
2018-02-07T07:34:50.567Z,101759.91
2018-02-07T07:35:55.092Z,101763.95
2018-02-07T07:36:59.474Z,101764.91
2018-02-07T07:38:04.070Z,101768.59
2018-02-07T07:39:09.225Z,101768.72
2018-02-07T07:40:13.386Z,101773.00
2018-02-07T07:41:17.600Z,101773.98
2018-02-07T07:42:21.826Z,101777.22
2018-02-07T07:43:25.965Z,101769.05
2018-02-07T07:47:12.939Z,101772.70
2018-02-07T07:50:42.554Z,101782.47
2018-02-07T07:56:02.852Z,101787.68
2018-02-07T07:58:16.784Z,101790.16
2018-02-07T07:59:21.000Z,101793.03
2018-02-07T08:00:25.323Z,101797.06
2018-02-07T08:01:30.603Z,101792.42
2018-02-07T08:02:34.795Z,101797.91
2018-02-07T08:03:39.049Z,101802.87
2018-02-07T08:04:43.222Z,101800.50
2018-02-07T08:05:47.575Z,101803.36
2018-02-07T08:11:35.384Z,101805.91
2018-02-07T08:12:45.234Z,101803.13
2018-02-07T08:19:48.694Z,101805.70
2018-02-07T08:26:25.925Z,101799.20
2018-02-07T08:27:30.290Z,101793.30
2018-02-07T08:28:34.443Z,101800.58
2018-02-07T08:29:38.625Z,101799.50
2018-02-07T08:30:43.543Z,101801.95
2018-02-07T08:31:48.032Z,101802.36
2018-02-07T08:32:52.275Z,101808.34
2018-02-07T08:33:56.448Z,101805.82
2018-02-07T08:35:01.483Z,101804.57
2018-02-07T08:36:05.615Z,101805.05
2018-02-07T08:37:10.061Z,101803.16
2018-02-07T08:38:14.264Z,101807.80
2018-02-07T08:39:18.515Z,101812.48
2018-02-07T08:40:22.738Z,101811.62
2018-02-07T08:41:26.893Z,101814.52
2018-02-07T08:43:51.575Z,101817.44
2018-02-07T08:50:48.915Z,101814.47
2018-02-07T08:51:53.052Z,101813.48
2018-02-07T08:52:57.386Z,101814.34
2018-02-07T08:54:01.863Z,101810.09
2018-02-07T08:55:07.431Z,101807.08
2018-02-07T08:56:13.006Z,101806.56
2018-02-07T08:57:17.387Z,101812.27
2018-02-07T08:58:21.602Z,101810.48
2018-02-07T08:59:25.884Z,101807.92
2018-02-07T09:00:33.775Z,101811.17
2018-02-07T09:03:16.227Z,101805.26
2018-02-07T09:04:24.046Z,101814.19
2018-02-07T09:09:05.755Z,101818.30
2018-02-07T09:10:10.043Z,101820.30
2018-02-07T09:11:14.196Z,101812.23
2018-02-07T09:12:18.382Z,101814.38
2018-02-07T09:13:22.547Z,101816.28
2018-02-07T09:14:26.706Z,101820.40
2018-02-07T09:15:31.092Z,101816.53
2018-02-07T09:16:35.618Z,101818.95
2018-02-07T09:17:39.874Z,101820.65
2018-02-07T09:26:01.778Z,101822.45
2018-02-07T09:27:06.044Z,101823.66
2018-02-07T09:28:10.208Z,101819.73
2018-02-07T09:29:14.426Z,101828.58
2018-02-07T09:30:18.916Z,101817.30
2018-02-07T09:31:23.826Z,101820.40
2018-02-07T09:32:28.024Z,101824.98
2018-02-07T09:33:32.207Z,101826.30
2018-02-07T09:34:36.476Z,101822.08
2018-02-07T09:35:40.750Z,101833.84
2018-02-07T09:36:45.010Z,101830.47
2018-02-07T09:45:27.526Z,101831.36
2018-02-07T09:47:23.919Z,101829.91
2018-02-07T09:48:58.877Z,101835.94
2018-02-07T09:50:08.988Z,101832.86
2018-02-07T09:52:26.384Z,101827.23
2018-02-07T09:53:30.626Z,101832.27
2018-02-07T09:54:34.807Z,101833.32
2018-02-07T09:55:39.062Z,101830.75
2018-02-07T09:56:43.250Z,101838.13
2018-02-07T09:57:47.769Z,101839.16
2018-02-07T09:58:51.970Z,101841.02
2018-02-07T09:59:56.338Z,101842.81
2018-02-07T10:01:00.776Z,101853.70
2018-02-07T10:02:06.063Z,101847.17
2018-02-07T10:03:10.334Z,101853.47
2018-02-07T10:04:14.492Z,101855.12
2018-02-07T10:05:18.675Z,101851.59
2018-02-07T10:06:22.856Z,101850.80
2018-02-07T10:07:27.323Z,101856.00
2018-02-07T10:08:32.530Z,101854.95
2018-02-07T10:09:36.738Z,101852.61
2018-02-07T10:10:40.898Z,101855.94
2018-02-07T10:11:45.221Z,101857.99
2018-02-07T10:12:49.604Z,101858.77
2018-02-07T10:13:53.838Z,101853.31
2018-02-07T10:15:14.185Z,101855.44
2018-02-07T10:17:35.280Z,101856.54
2018-02-07T10:19:32.683Z,101861.30
2018-02-07T10:21:54.427Z,101861.89
2018-02-07T10:23:27.337Z,101859.19
2018-02-07T10:24:34.766Z,101854.84
2018-02-07T10:28:38.554Z,101845.85
2018-02-07T10:29:42.719Z,101850.63
2018-02-07T10:30:47.304Z,101841.61
2018-02-07T10:31:51.499Z,101852.48
2018-02-07T10:32:56.756Z,101849.20
2018-02-07T10:34:01.036Z,101851.58
2018-02-07T10:52:38.751Z,101860.34
2018-02-07T10:53:45.013Z,101857.66
2018-02-07T10:54:54.946Z,101854.48
2018-02-07T11:00:26.584Z,101850.37
2018-02-07T11:01:30.767Z,101847.66
2018-02-07T11:02:35.991Z,101843.75
2018-02-07T11:03:40.155Z,101843.28
2018-02-07T11:04:44.744Z,101849.47
2018-02-07T11:05:50.156Z,101847.66
2018-02-07T11:06:54.417Z,101859.87
2018-02-07T11:08:00.976Z,101856.25
2018-02-07T11:09:57.419Z,101850.90
2018-02-07T11:16:28.820Z,101844.56
2018-02-07T11:21:58.522Z,101837.78
2018-02-07T11:23:02.805Z,101833.87
2018-02-07T11:24:06.987Z,101841.88
2018-02-07T11:25:11.167Z,101840.37
2018-02-07T11:26:15.371Z,101845.16
2018-02-07T11:27:19.564Z,101840.53
2018-02-07T11:28:23.827Z,101836.53
2018-02-07T11:29:28.322Z,101849.39
2018-02-07T11:33:25.563Z,101847.63
2018-02-07T11:35:21.770Z,101844.95
2018-02-07T11:41:18.513Z,101848.34
2018-02-07T11:43:43.229Z,101849.28
2018-02-07T11:46:31.692Z,101846.75
2018-02-07T11:49:05.610Z,101851.42
2018-02-07T11:50:09.807Z,101845.80
2018-02-07T11:51:14.000Z,101846.64
2018-02-07T11:52:18.430Z,101846.25
2018-02-07T11:53:22.602Z,101840.48
2018-02-07T11:54:26.960Z,101840.02
2018-02-07T11:55:34.581Z,101840.03
2018-02-07T12:00:13.406Z,101836.55
2018-02-07T12:02:52.047Z,101841.84
2018-02-07T12:14:34.191Z,101851.28
2018-02-07T12:15:42.257Z,101842.33
2018-02-07T12:16:52.294Z,101847.81
2018-02-07T12:18:04.335Z,101846.33
2018-02-07T12:19:12.603Z,101844.48
2018-02-07T12:23:31.367Z,101851.97
2018-02-07T12:32:24.881Z,101853.11
2018-02-07T12:33:29.753Z,101842.04
2018-02-07T12:34:34.001Z,101846.77
2018-02-07T12:35:38.346Z,101845.34
2018-02-07T12:36:42.556Z,101842.70
2018-02-07T12:37:47.041Z,101843.66
2018-02-07T12:38:52.252Z,101845.81
2018-02-07T12:39:56.902Z,101840.00
2018-02-07T12:41:01.874Z,101844.29
2018-02-07T12:42:06.486Z,101840.24
2018-02-07T12:43:10.674Z,101839.12
2018-02-07T12:44:14.982Z,101843.34
2018-02-07T12:45:19.286Z,101839.96
2018-02-07T12:46:23.631Z,101839.15
2018-02-07T12:47:27.940Z,101830.66
2018-02-07T12:48:32.564Z,101843.01
2018-02-07T12:49:36.916Z,101840.67
2018-02-07T12:50:41.149Z,101841.39
2018-02-07T12:51:45.352Z,101840.95
2018-02-07T12:52:49.627Z,101844.50
2018-02-07T12:53:54.674Z,101843.91
2018-02-07T12:54:59.004Z,101847.70
2018-02-07T12:56:03.223Z,101849.55
2018-02-07T12:57:07.406Z,101843.98
2018-02-07T12:58:11.606Z,101846.94
2018-02-07T13:00:27.324Z,101844.55
2018-02-07T13:02:41.134Z,101833.16
2018-02-07T13:03:46.026Z,101838.69
2018-02-07T13:04:50.651Z,101834.87
2018-02-07T13:05:54.868Z,101827.34
2018-02-07T13:06:59.141Z,101831.72
2018-02-07T13:08:03.415Z,101832.23
2018-02-07T13:09:07.634Z,101829.69
2018-02-07T13:10:11.874Z,101830.35
2018-02-07T13:11:16.129Z,101830.47
2018-02-07T13:12:20.475Z,101828.72
2018-02-07T13:13:24.827Z,101831.48
2018-02-07T13:14:30.092Z,101828.50
2018-02-07T13:16:49.004Z,101828.68
2018-02-07T13:17:53.374Z,101830.57
2018-02-07T13:18:57.627Z,101825.63
2018-02-07T13:20:01.841Z,101831.48
2018-02-07T13:21:06.082Z,101821.02
2018-02-07T13:22:11.244Z,101829.49
2018-02-07T13:23:15.608Z,101818.48
2018-02-07T13:29:46.741Z,101818.52
2018-02-07T13:30:51.229Z,101820.55
2018-02-07T13:31:55.654Z,101827.29
2018-02-07T13:32:59.936Z,101825.23
2018-02-07T13:34:04.282Z,101820.68
2018-02-07T13:35:08.847Z,101821.88
2018-02-07T13:36:13.055Z,101817.88
2018-02-07T13:37:17.310Z,101821.73
2018-02-07T13:38:21.740Z,101820.56
2018-02-07T13:39:26.053Z,101827.57
2018-02-07T13:40:30.384Z,101825.84
2018-02-07T13:41:34.633Z,101823.91
2018-02-07T13:42:39.631Z,101829.75
2018-02-07T13:51:14.059Z,101833.38
2018-02-07T13:52:18.764Z,101837.30
2018-02-07T13:53:23.052Z,101828.04
2018-02-07T13:54:27.579Z,101831.92
2018-02-07T13:55:31.901Z,101829.51
2018-02-07T13:56:36.257Z,101827.60
2018-02-07T13:57:41.750Z,101832.22
2018-02-07T13:58:46.594Z,101833.63
2018-02-07T13:59:50.903Z,101835.59
2018-02-07T14:00:55.553Z,101844.59
2018-02-07T14:02:00.547Z,101843.28
2018-02-07T14:07:45.858Z,101841.07
2018-02-07T14:12:13.678Z,101835.27
2018-02-07T14:13:25.876Z,101823.60
2018-02-07T14:15:55.512Z,101834.97
2018-02-07T14:17:01.834Z,101833.25
2018-02-07T14:18:06.173Z,101836.27
2018-02-07T14:19:10.816Z,101838.61
2018-02-07T14:20:15.274Z,101833.52
2018-02-07T14:22:52.971Z,101837.17
2018-02-07T14:24:01.127Z,101837.48
2018-02-07T14:30:38.034Z,101839.25
2018-02-07T14:31:43.968Z,101844.37
2018-02-07T14:32:48.860Z,101835.91
2018-02-07T14:36:46.591Z,101830.54
2018-02-07T14:38:03.764Z,101824.45
2018-02-07T14:39:18.730Z,101823.36
2018-02-07T14:41:47.038Z,101821.80
2018-02-07T14:48:50.657Z,101826.70
2018-02-07T14:50:00.402Z,101826.48
2018-02-07T14:51:08.747Z,101830.91
2018-02-07T14:52:13.599Z,101827.38
2018-02-07T14:53:18.846Z,101827.48
2018-02-07T14:54:24.002Z,101829.50
2018-02-07T14:55:29.127Z,101830.03
2018-02-07T14:56:34.262Z,101827.14
2018-02-07T14:58:59.385Z,101830.84
2018-02-07T15:00:20.434Z,101831.08
2018-02-07T15:01:34.573Z,101836.70
2018-02-07T15:02:42.972Z,101830.45
2018-02-07T15:05:07.748Z,101836.13
2018-02-07T15:13:39.137Z,101834.81
2018-02-07T15:14:43.899Z,101828.00
2018-02-07T15:15:50.991Z,101829.31
2018-02-07T15:16:57.315Z,101826.32
2018-02-07T15:22:06.213Z,101822.42
2018-02-07T15:23:14.083Z,101826.47
2018-02-07T15:24:21.599Z,101817.25
2018-02-07T15:25:27.845Z,101814.05
2018-02-07T15:26:33.464Z,101818.11
2018-02-07T15:27:40.241Z,101815.99
2018-02-07T15:28:46.430Z,101820.56
2018-02-07T15:29:53.080Z,101821.45
2018-02-07T15:30:58.266Z,101818.80
2018-02-07T15:32:04.050Z,101817.44
2018-02-07T15:33:10.546Z,101812.61